Time,TemperatureF,DewpointF,PressureIn,WindDirection,WindDirectionDegrees,WindSpeedMPH,WindSpeedGustMPH,Humidity,HourlyPrecipIn,Conditions,Clouds,dailyrainin,SoftwareType,DateUTC
2015-09-03 00:01:00,74.5,61.1,30.04,NNW,348,0.0,0.0,63,0.00,,---,0.00,VWS V15.00,2015-09-03 07:01:00,
2015-09-03 00:07:00,74.5,60.2,30.04,NNE,14,0.0,0.0,61,0.00,,---,0.00,VWS V15.00,2015-09-03 07:07:00,
2015-09-03 00:12:00,74.8,60.5,30.04,North,350,0.0,0.0,61,0.00,,---,0.00,VWS V15.00,2015-09-03 07:12:00,
2015-09-03 00:17:00,74.8,60.0,30.04,North,350,0.0,0.0,60,0.00,,---,0.00,VWS V15.00,2015-09-03 07:17:00,
2015-09-03 00:22:00,74.9,59.6,30.03,North,350,0.0,0.0,59,0.00,,---,0.00,VWS V15.00,2015-09-03 07:22:00,
2015-09-03 00:32:00,74.5,60.6,30.03,North,350,0.0,0.0,62,0.00,,---,0.00,VWS V15.00,2015-09-03 07:32:00,
2015-09-03 00:37:00,74.1,60.7,30.03,North,350,0.0,0.0,63,0.00,,---,0.00,VWS V15.00,2015-09-03 07:37:00,
2015-09-03 00:42:00,73.9,61.4,30.03,North,350,0.0,0.0,65,0.00,,---,0.00,VWS V15.00,2015-09-03 07:42:00,
2015-09-03 00:47:00,73.5,61.5,30.03,North,350,0.0,0.0,66,0.00,,---,0.00,VWS V15.00,2015-09-03 07:47:00,
2015-09-03 00:52:00,73.3,61.3,30.03,North,350,0.0,0.0,66,0.00,,---,0.00,VWS V15.00,2015-09-03 07:52:00,
2015-09-03 00:57:00,73.0,61.4,30.03,North,350,0.0,0.0,67,0.00,,---,0.00,VWS V15.00,2015-09-03 07:57:00,
2015-09-03 01:02:00,72.8,61.2,30.03,North,350,0.0,0.0,67,0.00,,---,0.00,VWS V15.00,2015-09-03 08:02:00,
2015-09-03 01:07:00,72.7,61.5,30.03,North,350,0.0,0.0,68,0.00,,---,0.00,VWS V15.00,2015-09-03 08:07:00,
2015-09-03 01:12:00,72.5,61.3,30.03,North,350,0.0,0.0,68,0.00,,---,0.00,VWS V15.00,2015-09-03 08:12:00,
2015-09-03 01:17:00,72.4,61.2,30.03,North,350,0.0,0.0,68,0.00,,---,0.00,VWS V15.00,2015-09-03 08:17:00,
2015-09-03 01:22:00,72.4,61.2,30.02,North,350,0.0,0.0,68,0.00,,---,0.00,VWS V15.00,2015-09-03 08:22:00,
2015-09-03 01:27:00,72.5,60.9,30.02,North,350,0.0,0.0,67,0.00,,---,0.00,VWS V15.00,2015-09-03 08:27:00,
2015-09-03 01:32:00,72.6,61.0,30.02,North,350,0.0,0.0,67,0.00,,---,0.00,VWS V15.00,2015-09-03 08:32:00,
2015-09-03 01:37:00,72.6,61.0,30.02,North,350,0.0,0.0,67,0.00,,---,0.00,VWS V15.00,2015-09-03 08:37:00,
2015-09-03 01:42:00,72.6,60.6,30.02,North,350,0.0,0.0,66,0.00,,---,0.00,VWS V15.00,2015-09-03 08:42:00,
2015-09-03 01:47:00,72.8,61.2,30.02,North,350,0.0,0.0,67,0.00,,---,0.00,VWS V15.00,2015-09-03 08:47:00,
2015-09-03 01:53:00,72.9,61.3,30.03,North,350,0.0,0.0,67,0.00,,---,0.00,VWS V15.00,2015-09-03 08:53:00,
2015-09-03 01:58:00,72.7,61.5,30.03,SSW,212,0.0,0.0,68,0.00,,---,0.00,VWS V15.00,2015-09-03 08:58:00,
2015-09-03 02:03:00,72.5,60.9,30.03,SSW,212,0.0,0.0,67,0.00,,---,0.00,VWS V15.00,2015-09-03 09:03:00,
2015-09-03 02:08:00,72.3,60.7,30.03,SSW,212,0.0,0.0,67,0.00,,---,0.00,VWS V15.00,2015-09-03 09:08:00,
2015-09-03 02:13:00,72.2,60.7,30.03,SSW,212,0.0,0.0,67,0.00,,---,0.00,VWS V15.00,2015-09-03 09:13:00,
2015-09-03 02:18:00,72.0,60.9,30.03,SSW,212,0.0,0.0,68,0.00,,---,0.00,VWS V15.00,2015-09-03 09:18:00,
2015-09-03 02:23:00,72.0,60.5,30.02,NW,324,0.0,0.0,67,0.00,,---,0.00,VWS V15.00,2015-09-03 09:23:00,
2015-09-03 02:28:00,72.1,61.0,30.02,NW,324,0.0,0.0,68,0.00,,---,0.00,VWS V15.00,2015-09-03 09:28:00,
2015-09-03 02:33:00,72.3,60.7,30.02,NE,34,0.0,0.0,67,0.00,,---,0.00,VWS V15.00,2015-09-03 09:33:00,
2015-09-03 02:38:00,72.4,60.8,30.02,ESE,112,0.0,0.0,67,0.00,,---,0.00,VWS V15.00,2015-09-03 09:38:00,
2015-09-03 02:43:00,72.4,60.4,30.01,ESE,112,0.0,0.0,66,0.00,,---,0.00,VWS V15.00,2015-09-03 09:43:00,
2015-09-03 02:48:00,72.5,60.9,30.01,ESE,112,0.0,0.0,67,0.00,,---,0.00,VWS V15.00,2015-09-03 09:48:00,
2015-09-03 02:53:00,72.4,60.4,30.01,ESE,112,0.0,0.0,66,0.00,,---,0.00,VWS V15.00,2015-09-03 09:53:00,
2015-09-03 02:58:00,72.3,59.9,30.01,ESE,112,0.0,0.0,65,0.00,,---,0.00,VWS V15.00,2015-09-03 09:58:00,
2015-09-03 03:03:00,72.4,60.8,30.01,ESE,112,0.0,0.0,67,0.00,,---,0.00,VWS V15.00,2015-09-03 10:03:00,
2015-09-03 03:08:00,72.5,60.9,30.01,ESE,112,0.0,0.0,67,0.00,,---,0.00,VWS V15.00,2015-09-03 10:08:00,
2015-09-03 03:13:00,72.6,61.0,30.01,ESE,112,0.0,0.0,67,0.00,,---,0.00,VWS V15.00,2015-09-03 10:13:00,
2015-09-03 03:18:00,72.6,61.0,30.01,ESE,112,0.0,0.0,67,0.00,,---,0.00,VWS V15.00,2015-09-03 10:18:00,
2015-09-03 03:23:00,72.7,61.1,30.01,ESE,112,0.0,0.0,67,0.00,,---,0.00,VWS V15.00,2015-09-03 10:23:00,
2015-09-03 03:28:00,72.7,61.1,30.01,ESE,112,0.0,0.0,67,0.00,,---,0.00,VWS V15.00,2015-09-03 10:28:00,
2015-09-03 03:33:00,72.7,61.1,30.01,ESE,112,0.0,0.0,67,0.00,,---,0.00,VWS V15.00,2015-09-03 10:33:00,
2015-09-03 03:39:00,72.6,61.4,30.01,ESE,112,0.0,0.0,68,0.00,,---,0.00,VWS V15.00,2015-09-03 10:39:00,
2015-09-03 03:49:00,72.2,61.1,30.02,ESE,112,0.0,0.0,68,0.00,,---,0.00,VWS V15.00,2015-09-03 10:49:00,
2015-09-03 03:54:00,72.1,61.4,30.02,ESE,112,0.0,0.0,69,0.00,,---,0.00,VWS V15.00,2015-09-03 10:54:00,
2015-09-03 03:59:00,71.8,61.5,30.02,ESE,112,0.0,0.0,70,0.00,,---,0.00,VWS V15.00,2015-09-03 10:59:00,
2015-09-03 04:04:00,71.7,61.8,30.02,ESE,112,0.0,0.0,71,0.00,,---,0.00,VWS V15.00,2015-09-03 11:04:00,
2015-09-03 04:09:00,71.6,61.3,30.02,ESE,112,0.0,0.0,70,0.00,,---,0.00,VWS V15.00,2015-09-03 11:09:00,
2015-09-03 04:14:00,71.5,61.6,30.02,ESE,112,0.0,0.0,71,0.00,,---,0.00,VWS V15.00,2015-09-03 11:14:00,
2015-09-03 04:19:00,71.5,61.6,30.02,ESE,112,0.0,0.0,71,0.00,,---,0.00,VWS V15.00,2015-09-03 11:19:00,
2015-09-03 04:24:00,71.4,61.5,30.02,ESE,112,0.0,0.0,71,0.00,,---,0.00,VWS V15.00,2015-09-03 11:24:00,
2015-09-03 04:29:00,71.3,61.4,30.02,ESE,112,0.0,0.0,71,0.00,,---,0.00,VWS V15.00,2015-09-03 11:29:00,
2015-09-03 04:34:00,71.3,61.8,30.02,ESE,112,0.0,0.0,72,0.00,,---,0.00,VWS V15.00,2015-09-03 11:34:00,
2015-09-03 04:39:00,71.3,61.4,30.03,ESE,112,0.0,0.0,71,0.00,,---,0.00,VWS V15.00,2015-09-03 11:39:00,
2015-09-03 04:44:00,71.3,61.8,30.03,ESE,112,0.0,0.0,72,0.00,,---,0.00,VWS V15.00,2015-09-03 11:44:00,
2015-09-03 04:49:00,71.2,62.1,30.03,ESE,112,0.0,0.0,73,0.00,,---,0.00,VWS V15.00,2015-09-03 11:49:00,
2015-09-03 04:54:00,71.0,61.9,30.03,ESE,112,0.0,0.0,73,0.00,,---,0.00,VWS V15.00,2015-09-03 11:54:00,
2015-09-03 04:59:00,70.8,62.1,30.03,ESE,112,0.0,0.0,74,0.00,,---,0.00,VWS V15.00,2015-09-03 11:59:00,
2015-09-03 05:04:00,70.6,61.9,30.03,ESE,112,0.0,0.0,74,0.00,,---,0.00,VWS V15.00,2015-09-03 12:04:00,
2015-09-03 05:09:00,70.5,61.8,30.03,ESE,112,0.0,0.0,74,0.00,,---,0.00,VWS V15.00,2015-09-03 12:09:00,
2015-09-03 05:14:00,70.5,62.2,30.04,ESE,112,0.0,0.0,75,0.00,,---,0.00,VWS V15.00,2015-09-03 12:14:00,
2015-09-03 05:20:00,70.4,62.1,30.04,ESE,112,0.0,0.0,75,0.00,,---,0.00,VWS V15.00,2015-09-03 12:20:00,
2015-09-03 05:25:00,70.4,62.1,30.04,ESE,112,0.0,0.0,75,0.00,,---,0.00,VWS V15.00,2015-09-03 12:25:00,
2015-09-03 05:30:00,70.4,61.3,30.04,ESE,112,0.0,0.0,73,0.00,,---,0.00,VWS V15.00,2015-09-03 12:30:00,
2015-09-03 05:35:00,70.5,61.4,30.04,ESE,112,0.0,0.0,73,0.00,,---,0.00,VWS V15.00,2015-09-03 12:35:00,